TAF KACK
AMD KACK 270900Z 2709/2806 29018G35KT P6SM SCT035 BKN080 FM271500 29024G36KT P6SM SCT035 FM272000 28019G27KT P6SM SKC FM280400 29014G22KT P6SM SKC=
METAR KACK
WC KACK
WS KACK
WV KACK